createdAt,value
2018-07-16T00:03:31.530Z,20.82
2018-07-16T00:06:00.911Z,20.74
2018-07-16T00:08:29.991Z,20.71
2018-07-16T00:10:58.956Z,20.67
2018-07-16T00:13:28.302Z,20.59
2018-07-16T00:15:57.288Z,20.60
2018-07-16T00:18:26.270Z,20.61
2018-07-16T00:20:55.291Z,20.59
2018-07-16T00:23:24.327Z,20.49
2018-07-16T00:25:53.163Z,20.41
2018-07-16T00:28:22.440Z,20.37
2018-07-16T00:30:52.485Z,20.31
2018-07-16T00:33:21.146Z,20.26
2018-07-16T00:35:50.199Z,20.31
2018-07-16T00:38:19.031Z,20.28
2018-07-16T00:40:48.762Z,20.28
2018-07-16T00:43:18.300Z,20.25
2018-07-16T00:45:47.437Z,20.26
2018-07-16T00:48:16.482Z,20.23
2018-07-16T00:50:45.591Z,20.16
2018-07-16T00:53:14.754Z,20.16
2018-07-16T00:55:43.609Z,20.10
2018-07-16T00:58:12.823Z,20.05
2018-07-16T01:00:41.626Z,20.05
2018-07-16T01:03:10.502Z,19.98
2018-07-16T01:05:39.994Z,19.99
2018-07-16T01:08:09.238Z,19.93
2018-07-16T01:10:38.437Z,19.96
2018-07-16T01:13:07.399Z,19.90
2018-07-16T01:15:36.111Z,19.83
2018-07-16T01:18:05.140Z,19.76
2018-07-16T01:20:34.106Z,19.79
2018-07-16T01:23:03.560Z,19.73
2018-07-16T01:25:51.266Z,19.77
2018-07-16T01:28:20.141Z,19.71
2018-07-16T01:30:49.005Z,19.61
2018-07-16T01:33:18.060Z,19.62
2018-07-16T01:41:35.107Z,19.52
2018-07-16T01:44:03.792Z,19.42
2018-07-16T01:46:37.463Z,19.39
2018-07-16T01:49:06.579Z,19.37
2018-07-16T01:51:35.758Z,19.36
2018-07-16T01:54:04.763Z,19.39
2018-07-16T01:56:34.047Z,19.36
2018-07-16T01:59:03.178Z,19.32
2018-07-16T02:01:32.467Z,19.34
2018-07-16T02:04:01.768Z,19.28
2018-07-16T02:18:17.705Z,19.14
2018-07-16T02:20:47.867Z,19.08
2018-07-16T02:23:16.534Z,19.07
2018-07-16T02:25:45.801Z,19.01
2018-07-16T02:28:15.071Z,18.99
2018-07-16T02:30:44.771Z,19.04
2018-07-16T02:33:14.269Z,18.99
2018-07-16T02:47:32.203Z,18.88
2018-07-16T02:50:01.392Z,18.80
2018-07-16T02:52:30.379Z,18.82
2018-07-16T02:54:59.542Z,18.82
2018-07-16T02:57:28.475Z,18.77
2018-07-16T02:59:57.774Z,18.75
2018-07-16T03:02:27.280Z,18.67
2018-07-16T03:04:56.271Z,18.60
2018-07-16T03:07:25.793Z,18.53
2018-07-16T03:09:54.777Z,18.59
2018-07-16T03:12:23.634Z,18.62
2018-07-16T03:14:52.839Z,18.66
2018-07-16T03:17:21.887Z,18.74
2018-07-16T03:19:51.077Z,18.91
2018-07-16T03:22:20.065Z,19.21
2018-07-16T03:24:49.385Z,19.55
2018-07-16T03:27:18.291Z,20.02
2018-07-16T03:29:47.358Z,20.52
2018-07-16T03:32:16.747Z,21.02
2018-07-16T03:34:46.559Z,21.46
2018-07-16T03:37:15.346Z,21.89
2018-07-16T03:39:44.437Z,22.31
2018-07-16T03:42:30.052Z,22.65
2018-07-16T03:44:59.321Z,23.13
2018-07-16T03:47:28.512Z,23.42
2018-07-16T03:49:57.507Z,23.91
2018-07-16T03:52:26.571Z,24.31
2018-07-16T03:54:55.620Z,24.99
2018-07-16T03:57:24.970Z,25.09
2018-07-16T03:59:54.106Z,25.64
2018-07-16T04:02:23.123Z,25.25
2018-07-16T04:04:52.103Z,25.78
2018-07-16T04:07:21.366Z,26.43
2018-07-16T04:09:50.926Z,27.00
2018-07-16T04:12:20.101Z,27.15
2018-07-16T04:14:49.773Z,27.76
2018-07-16T04:17:18.594Z,28.26
2018-07-16T04:19:47.365Z,29.12
2018-07-16T04:22:16.840Z,29.63
2018-07-16T04:24:45.661Z,30.09
2018-07-16T04:27:14.459Z,30.26
2018-07-16T04:29:43.592Z,30.36
2018-07-16T04:32:12.619Z,30.46
2018-07-16T04:34:41.536Z,30.93
2018-07-16T04:37:10.655Z,31.29
2018-07-16T04:39:39.739Z,31.23
2018-07-16T04:42:10.164Z,31.50
2018-07-16T04:44:39.564Z,32.06
2018-07-16T04:47:11.488Z,31.29
2018-07-16T04:49:40.608Z,31.45
2018-07-16T04:52:10.333Z,32.18
2018-07-16T04:54:39.855Z,32.53
2018-07-16T04:57:09.057Z,33.13
2018-07-16T04:59:38.452Z,33.24
2018-07-16T05:02:07.428Z,33.18
2018-07-16T05:04:36.474Z,33.22
2018-07-16T05:07:05.747Z,33.94
2018-07-16T05:09:34.812Z,34.25
2018-07-16T05:12:04.001Z,33.72
2018-07-16T05:14:33.299Z,33.74
2018-07-16T05:17:02.521Z,33.42
2018-07-16T05:19:31.693Z,32.99
2018-07-16T05:22:00.940Z,33.46
2018-07-16T05:24:29.979Z,33.70
2018-07-16T05:26:58.987Z,34.36
2018-07-16T05:29:28.090Z,34.77
2018-07-16T05:31:56.927Z,33.86
2018-07-16T05:34:26.292Z,34.07
2018-07-16T05:36:55.321Z,33.94
2018-07-16T05:39:24.380Z,34.42
2018-07-16T05:41:53.253Z,34.32
2018-07-16T05:44:22.570Z,35.07
2018-07-16T05:46:51.569Z,34.00
2018-07-16T05:49:20.694Z,33.49
2018-07-16T05:51:49.660Z,33.99
2018-07-16T05:54:18.477Z,34.44
2018-07-16T05:56:48.090Z,34.85
2018-07-16T05:59:17.182Z,34.39
2018-07-16T06:01:46.248Z,34.21
2018-07-16T06:04:15.947Z,35.10
2018-07-16T06:06:44.843Z,35.38
2018-07-16T06:09:14.030Z,36.07
2018-07-16T06:11:43.001Z,34.70
2018-07-16T06:14:12.028Z,34.75
2018-07-16T06:16:40.761Z,34.42
2018-07-16T06:19:09.710Z,35.49
2018-07-16T06:21:39.105Z,35.85
2018-07-16T06:24:08.538Z,36.03
2018-07-16T06:26:37.235Z,36.31
2018-07-16T06:29:06.247Z,36.34
2018-07-16T06:31:35.083Z,36.71
2018-07-16T06:34:04.062Z,35.63
2018-07-16T06:36:34.400Z,35.94
2018-07-16T06:39:03.880Z,35.47
2018-07-16T06:41:33.031Z,35.59
2018-07-16T06:44:02.345Z,36.01
2018-07-16T06:46:31.812Z,35.15
2018-07-16T06:49:01.325Z,34.95
2018-07-16T06:51:30.756Z,34.44
2018-07-16T06:53:59.819Z,34.86
2018-07-16T06:56:28.714Z,35.42
2018-07-16T06:58:58.363Z,35.25
2018-07-16T07:01:27.495Z,34.14
2018-07-16T07:03:56.412Z,33.51
2018-07-16T07:06:25.461Z,33.97
2018-07-16T07:08:54.608Z,34.79
2018-07-16T07:11:23.396Z,35.09
2018-07-16T07:13:52.635Z,35.18
2018-07-16T07:16:27.448Z,35.34
2018-07-16T07:18:56.525Z,35.89
2018-07-16T07:21:25.964Z,34.79
2018-07-16T07:23:55.439Z,35.13
2018-07-16T07:26:24.750Z,35.30
2018-07-16T07:28:53.531Z,35.74
2018-07-16T07:31:22.304Z,35.74
2018-07-16T07:33:51.363Z,34.38
2018-07-16T07:36:21.343Z,34.79
2018-07-16T07:38:50.448Z,35.09
2018-07-16T07:41:20.241Z,35.81
2018-07-16T07:43:50.030Z,35.68
2018-07-16T07:46:18.870Z,34.89
2018-07-16T07:48:48.161Z,34.90
2018-07-16T07:51:17.008Z,34.39
2018-07-16T07:53:46.082Z,34.04
2018-07-16T07:56:15.314Z,33.96
2018-07-16T07:58:44.306Z,34.52
2018-07-16T08:01:13.734Z,34.40
2018-07-16T08:03:43.055Z,33.83
2018-07-16T08:06:12.033Z,33.80
2018-07-16T08:08:41.088Z,34.16
2018-07-16T08:11:10.141Z,33.88
2018-07-16T08:13:39.222Z,34.49
2018-07-16T08:16:08.391Z,34.68
2018-07-16T08:18:37.561Z,34.85
2018-07-16T08:21:06.984Z,35.06
2018-07-16T08:23:35.879Z,35.06
2018-07-16T08:26:05.159Z,35.32
2018-07-16T08:28:34.175Z,34.21
2018-07-16T08:31:03.271Z,34.61
2018-07-16T08:33:32.461Z,34.66
2018-07-16T08:36:01.460Z,35.37
2018-07-16T08:38:30.663Z,34.91
2018-07-16T08:41:00.085Z,35.45
2018-07-16T08:43:29.083Z,33.53
2018-07-16T08:45:58.438Z,33.88
2018-07-16T08:48:27.255Z,34.23
2018-07-16T08:50:56.127Z,34.11
2018-07-16T08:53:25.242Z,34.52
2018-07-16T08:55:54.647Z,33.81
2018-07-16T08:58:23.553Z,33.73
2018-07-16T09:00:52.778Z,33.26
2018-07-16T09:03:22.823Z,33.63
2018-07-16T09:06:08.037Z,33.16
2018-07-16T09:08:37.682Z,33.08
2018-07-16T09:11:06.949Z,33.14
2018-07-16T09:13:36.165Z,33.08
2018-07-16T09:16:05.199Z,33.43
2018-07-16T09:18:33.934Z,32.10
2018-07-16T09:21:02.946Z,31.89
2018-07-16T09:23:32.091Z,31.72
2018-07-16T09:26:01.223Z,30.41
2018-07-16T09:28:30.422Z,29.65
2018-07-16T09:30:59.705Z,29.36
2018-07-16T09:33:28.605Z,29.36
2018-07-16T09:35:57.608Z,29.79
2018-07-16T09:38:26.463Z,29.76
2018-07-16T09:40:55.601Z,29.85
2018-07-16T09:43:24.476Z,30.13
2018-07-16T09:45:53.301Z,30.22
2018-07-16T09:48:22.563Z,29.60
2018-07-16T09:50:51.500Z,29.66
2018-07-16T09:53:20.170Z,29.52
2018-07-16T09:55:49.053Z,29.44
2018-07-16T09:58:18.331Z,29.52
2018-07-16T10:01:55.109Z,29.71
2018-07-16T10:04:23.766Z,29.93
2018-07-16T10:06:52.715Z,30.08
2018-07-16T10:09:22.123Z,30.27
2018-07-16T10:11:51.098Z,30.37
2018-07-16T10:14:20.040Z,29.84
2018-07-16T10:16:49.170Z,29.24
2018-07-16T10:19:18.106Z,29.36
2018-07-16T10:21:47.184Z,28.85
2018-07-16T10:24:16.251Z,28.19
2018-07-16T10:26:45.190Z,28.16
2018-07-16T10:29:14.380Z,28.57
2018-07-16T10:31:43.801Z,28.64
2018-07-16T10:34:13.319Z,28.61
2018-07-16T10:36:42.081Z,28.82
2018-07-16T10:39:11.237Z,28.92
2018-07-16T10:41:40.281Z,28.94
2018-07-16T10:44:09.277Z,29.23
2018-07-16T10:46:38.478Z,28.95
2018-07-16T10:49:08.060Z,29.09
2018-07-16T10:51:36.847Z,29.18
2018-07-16T10:54:05.880Z,28.87
2018-07-16T10:56:34.824Z,28.77
2018-07-16T10:59:03.711Z,28.96
2018-07-16T11:01:32.551Z,28.72
2018-07-16T11:04:01.709Z,28.56
2018-07-16T11:06:30.904Z,28.30
2018-07-16T11:09:00.067Z,28.06
2018-07-16T11:11:28.906Z,28.13
2018-07-16T11:13:57.895Z,28.43
2018-07-16T11:16:27.117Z,28.86
2018-07-16T11:18:56.056Z,29.00
2018-07-16T11:21:24.880Z,29.12
2018-07-16T11:23:53.899Z,28.64
2018-07-16T11:26:22.957Z,28.48
2018-07-16T11:28:52.044Z,28.47
2018-07-16T11:31:21.156Z,28.53
2018-07-16T11:33:50.257Z,28.25
2018-07-16T11:36:19.277Z,28.39
2018-07-16T11:38:48.593Z,28.54
2018-07-16T11:41:18.173Z,28.76
2018-07-16T11:43:47.177Z,28.61
2018-07-16T11:46:16.096Z,28.52
2018-07-16T11:48:45.041Z,28.44
2018-07-16T11:51:14.032Z,28.38
2018-07-16T11:53:43.276Z,28.38
2018-07-16T11:56:12.182Z,28.67
2018-07-16T11:58:40.988Z,28.76
2018-07-16T12:01:09.823Z,28.78
2018-07-16T12:03:38.771Z,28.93
2018-07-16T12:06:13.402Z,28.54
2018-07-16T12:08:42.398Z,28.38
2018-07-16T12:11:11.282Z,28.35
2018-07-16T12:13:40.168Z,27.84
2018-07-16T12:16:09.135Z,27.65
2018-07-16T12:18:38.145Z,27.70
2018-07-16T12:21:07.473Z,27.74
2018-07-16T12:23:36.246Z,27.85
2018-07-16T12:26:05.974Z,28.09
2018-07-16T12:28:34.851Z,28.50
2018-07-16T12:31:03.547Z,28.73
2018-07-16T12:33:32.521Z,29.08
2018-07-16T12:36:02.350Z,29.16
2018-07-16T12:38:31.524Z,29.24
2018-07-16T12:41:00.413Z,29.22
2018-07-16T12:43:29.551Z,28.56
2018-07-16T12:45:58.620Z,28.07
2018-07-16T12:48:27.921Z,28.13
2018-07-16T12:50:57.030Z,28.48
2018-07-16T12:53:25.990Z,28.51
2018-07-16T12:55:55.100Z,28.80
2018-07-16T12:58:24.311Z,28.87
2018-07-16T13:00:52.979Z,28.87
2018-07-16T13:03:21.763Z,29.00
2018-07-16T13:05:51.409Z,28.57
2018-07-16T13:08:20.183Z,28.33
2018-07-16T13:10:49.242Z,28.30
2018-07-16T13:13:18.070Z,28.54
2018-07-16T13:15:47.713Z,28.43
2018-07-16T13:18:16.627Z,28.51
2018-07-16T13:20:45.287Z,28.54
2018-07-16T13:23:14.348Z,28.45
2018-07-16T13:25:43.433Z,28.67
2018-07-16T13:28:12.474Z,28.81
2018-07-16T13:30:41.424Z,28.73
2018-07-16T13:33:10.427Z,28.62
2018-07-16T13:35:39.644Z,28.53
2018-07-16T13:38:08.743Z,28.55
2018-07-16T13:40:37.789Z,28.89
2018-07-16T13:43:06.663Z,29.04
2018-07-16T13:45:35.314Z,28.96
2018-07-16T13:48:04.315Z,28.80
2018-07-16T13:50:33.743Z,28.83
2018-07-16T13:53:03.313Z,28.34
2018-07-16T13:55:32.243Z,28.24
2018-07-16T13:58:01.429Z,28.22
2018-07-16T14:00:30.608Z,28.17
2018-07-16T14:02:59.688Z,27.99
2018-07-16T14:05:28.608Z,27.75
2018-07-16T14:07:57.756Z,27.81
2018-07-16T14:10:26.620Z,27.80
2018-07-16T14:12:55.622Z,27.95
2018-07-16T14:15:24.494Z,28.26
2018-07-16T14:17:53.772Z,28.37
2018-07-16T14:20:23.020Z,28.27
2018-07-16T14:22:51.838Z,28.14
2018-07-16T14:25:20.963Z,28.03
2018-07-16T14:27:50.028Z,28.06
2018-07-16T14:30:18.869Z,28.00
2018-07-16T14:32:47.975Z,27.92
2018-07-16T14:35:17.006Z,27.69
2018-07-16T14:37:45.864Z,27.75
2018-07-16T14:40:14.975Z,27.89
2018-07-16T14:42:44.154Z,28.05
2018-07-16T14:45:13.246Z,28.24
2018-07-16T14:47:42.407Z,28.37
2018-07-16T14:50:11.477Z,28.25
2018-07-16T14:52:40.534Z,28.32
2018-07-16T14:55:09.504Z,28.19
2018-07-16T14:57:39.178Z,28.12
2018-07-16T15:00:08.879Z,28.11
2018-07-16T15:02:37.757Z,27.96
2018-07-16T15:05:06.970Z,27.74
2018-07-16T15:07:35.870Z,27.71
2018-07-16T15:10:04.831Z,27.84
2018-07-16T15:12:34.110Z,28.00
2018-07-16T15:15:03.768Z,27.84
2018-07-16T15:17:33.301Z,27.59
2018-07-16T15:20:02.370Z,27.51
2018-07-16T15:22:31.779Z,27.47
2018-07-16T15:25:00.580Z,27.31
2018-07-16T15:27:29.871Z,27.23
2018-07-16T15:29:58.882Z,27.11
2018-07-16T15:32:27.866Z,27.22
2018-07-16T15:34:57.197Z,27.42
2018-07-16T15:37:27.090Z,27.50
2018-07-16T15:39:56.259Z,27.41
2018-07-16T15:42:25.641Z,27.41
2018-07-16T15:44:54.674Z,27.32
2018-07-16T15:47:23.667Z,27.29
2018-07-16T15:49:52.423Z,27.34
2018-07-16T15:52:21.952Z,27.31
2018-07-16T15:54:50.748Z,27.28
2018-07-16T15:57:20.029Z,27.19
2018-07-16T15:59:48.823Z,27.30
2018-07-16T16:02:17.749Z,27.40
2018-07-16T16:04:47.804Z,27.46
2018-07-16T16:07:16.751Z,27.39
2018-07-16T16:09:46.505Z,27.31
2018-07-16T16:12:15.569Z,27.44
2018-07-16T16:14:44.564Z,27.41
2018-07-16T16:17:14.906Z,27.25
2018-07-16T16:19:44.120Z,27.14
2018-07-16T16:22:12.797Z,26.97
2018-07-16T16:24:42.290Z,26.87
2018-07-16T16:27:11.227Z,26.78
2018-07-16T16:29:40.782Z,26.64
2018-07-16T16:32:10.090Z,26.59
2018-07-16T16:34:38.995Z,26.56
2018-07-16T16:37:08.070Z,26.43
2018-07-16T16:39:37.378Z,26.31
2018-07-16T16:42:07.005Z,26.20
2018-07-16T16:44:36.092Z,26.20
2018-07-16T16:47:05.477Z,26.19
2018-07-16T16:49:34.810Z,26.20
2018-07-16T16:52:03.897Z,26.12
2018-07-16T16:54:34.184Z,26.09
2018-07-16T16:57:03.145Z,26.07
2018-07-16T16:59:34.372Z,25.97
2018-07-16T17:02:04.243Z,25.94
2018-07-16T17:04:33.347Z,25.90
2018-07-16T17:07:03.324Z,25.84
2018-07-16T17:09:34.772Z,25.85
2018-07-16T17:12:05.476Z,25.79
2018-07-16T17:14:37.826Z,25.76
2018-07-16T17:17:07.018Z,25.76
2018-07-16T17:19:36.683Z,25.75
2018-07-16T17:22:08.183Z,25.77
2018-07-16T17:24:38.331Z,25.71
2018-07-16T17:27:07.302Z,25.73
2018-07-16T17:29:38.911Z,25.62
2018-07-16T17:32:11.204Z,25.59
2018-07-16T17:34:40.540Z,25.50
2018-07-16T17:37:10.126Z,25.35
2018-07-16T17:39:39.685Z,25.28
2018-07-16T17:42:09.295Z,25.24
2018-07-16T17:44:38.597Z,25.24
2018-07-16T17:47:07.698Z,25.17
2018-07-16T17:49:37.203Z,25.03
2018-07-16T17:52:07.222Z,24.92
2018-07-16T17:54:38.583Z,24.88
2018-07-16T17:57:07.575Z,24.80
2018-07-16T17:59:36.982Z,24.74
2018-07-16T18:02:06.519Z,24.68
2018-07-16T18:04:35.781Z,24.57
2018-07-16T18:07:04.561Z,24.56
2018-07-16T18:09:33.508Z,24.52
2018-07-16T18:12:02.711Z,24.44
2018-07-16T18:14:31.973Z,24.24
2018-07-16T18:17:01.493Z,24.19
2018-07-16T18:19:30.771Z,24.19
2018-07-16T18:21:59.770Z,24.17
2018-07-16T18:24:29.374Z,24.18
2018-07-16T18:26:58.516Z,24.11
2018-07-16T18:29:27.361Z,24.12
2018-07-16T18:31:56.467Z,24.04
2018-07-16T18:34:25.356Z,24.09
2018-07-16T18:36:54.752Z,24.13
2018-07-16T18:39:24.287Z,24.12
2018-07-16T18:41:53.582Z,24.11
2018-07-16T18:44:22.667Z,24.12
2018-07-16T18:46:52.178Z,24.14
2018-07-16T18:49:22.017Z,24.15
2018-07-16T18:51:50.946Z,24.16
2018-07-16T18:54:20.432Z,24.12
2018-07-16T18:56:49.466Z,24.17
2018-07-16T18:59:18.365Z,24.16
2018-07-16T19:01:47.510Z,24.06
2018-07-16T19:04:16.875Z,24.17
2018-07-16T19:06:46.546Z,24.23
2018-07-16T19:09:16.187Z,24.18
2018-07-16T19:11:45.285Z,24.17
2018-07-16T19:14:15.008Z,24.15
2018-07-16T19:16:44.051Z,24.15
2018-07-16T19:19:12.800Z,24.10
2018-07-16T19:21:42.060Z,24.02
2018-07-16T19:24:11.891Z,24.04
2018-07-16T19:26:41.056Z,24.03
2018-07-16T19:29:10.729Z,24.02
2018-07-16T19:31:39.722Z,23.99
2018-07-16T19:34:08.759Z,23.99
2018-07-16T19:36:38.413Z,23.89
2018-07-16T19:39:09.374Z,23.81
2018-07-16T19:41:38.444Z,23.74
2018-07-16T19:44:08.139Z,23.68
2018-07-16T19:46:37.483Z,23.62
2018-07-16T19:49:07.219Z,23.57
2018-07-16T19:51:36.155Z,23.48
2018-07-16T19:54:06.139Z,23.38
2018-07-16T19:56:35.572Z,23.36
2018-07-16T19:59:04.375Z,23.39
2018-07-16T20:01:33.409Z,23.42
2018-07-16T20:04:02.276Z,23.37
2018-07-16T20:06:31.951Z,23.26
2018-07-16T20:09:01.793Z,23.33
2018-07-16T20:11:30.788Z,23.31
2018-07-16T20:14:02.061Z,23.27
2018-07-16T20:16:42.102Z,23.15
2018-07-16T20:19:11.593Z,23.09
2018-07-16T20:21:40.666Z,23.11
2018-07-16T20:24:10.552Z,23.13
2018-07-16T20:26:39.390Z,23.13
2018-07-16T20:29:08.028Z,23.18
2018-07-16T20:31:37.903Z,23.21
2018-07-16T20:34:06.688Z,23.24
2018-07-16T20:36:35.477Z,23.09
2018-07-16T20:39:06.849Z,22.91
2018-07-16T20:41:37.059Z,22.84
2018-07-16T20:44:06.154Z,22.81
2018-07-16T20:46:35.248Z,22.82
2018-07-16T20:49:04.306Z,22.78
2018-07-16T20:51:33.434Z,22.77
2018-07-16T20:54:02.648Z,22.79
2018-07-16T20:56:31.728Z,22.75
2018-07-16T20:59:00.625Z,22.73
2018-07-16T21:01:29.742Z,22.68
2018-07-16T21:03:58.635Z,22.57
2018-07-16T21:06:27.508Z,22.51
2018-07-16T21:08:56.827Z,22.47
2018-07-16T21:11:26.971Z,22.42
2018-07-16T21:13:55.892Z,22.46
2018-07-16T21:16:25.549Z,22.39
2018-07-16T21:18:54.664Z,22.41
2018-07-16T21:21:23.706Z,22.52
2018-07-16T21:23:52.707Z,22.43
2018-07-16T21:26:22.018Z,22.30
2018-07-16T21:28:51.529Z,22.28
2018-07-16T21:31:20.403Z,22.19
2018-07-16T21:33:49.526Z,22.09
2018-07-16T21:36:18.723Z,21.97
2018-07-16T21:38:47.807Z,21.90
2018-07-16T21:41:16.954Z,21.72
2018-07-16T21:43:46.359Z,21.67
2018-07-16T21:46:15.279Z,21.57
2018-07-16T21:48:44.235Z,21.57
2018-07-16T21:51:13.888Z,21.56
2018-07-16T21:53:43.445Z,21.51
2018-07-16T21:56:12.656Z,21.41
2018-07-16T21:58:41.602Z,21.28
2018-07-16T22:01:10.567Z,21.24
2018-07-16T22:03:40.116Z,21.33
2018-07-16T22:06:09.299Z,21.26
2018-07-16T22:08:38.194Z,21.24
2018-07-16T22:11:07.102Z,21.18
2018-07-16T22:13:35.975Z,21.19
2018-07-16T22:16:05.203Z,21.20
2018-07-16T22:18:34.607Z,21.25
2018-07-16T22:21:03.734Z,21.25
2018-07-16T22:23:33.197Z,21.22
2018-07-16T22:26:02.363Z,21.15
2018-07-16T22:28:31.134Z,21.10
2018-07-16T22:31:00.115Z,21.00
2018-07-16T22:33:29.206Z,20.98
2018-07-16T22:35:58.374Z,20.87
2018-07-16T22:38:27.464Z,20.77
2018-07-16T22:40:56.362Z,20.68
2018-07-16T22:43:25.748Z,20.65
2018-07-16T22:45:54.865Z,20.62
2018-07-16T22:48:24.258Z,20.59
2018-07-16T22:50:53.177Z,20.57
2018-07-16T22:53:22.343Z,20.54
2018-07-16T22:55:51.466Z,20.48
2018-07-16T22:58:20.761Z,20.53
2018-07-16T23:00:49.611Z,20.55
2018-07-16T23:03:18.759Z,20.57
2018-07-16T23:05:47.837Z,20.46
2018-07-16T23:08:17.847Z,20.45
2018-07-16T23:10:47.494Z,20.43
2018-07-16T23:13:16.341Z,20.51
2018-07-16T23:15:45.139Z,20.66
2018-07-16T23:18:14.342Z,20.67
2018-07-16T23:20:43.237Z,20.71
2018-07-16T23:23:12.658Z,20.56
2018-07-16T23:25:41.727Z,20.55
2018-07-16T23:28:10.839Z,20.54
2018-07-16T23:30:39.938Z,20.60
2018-07-16T23:33:09.683Z,20.60
2018-07-16T23:35:38.546Z,20.69
2018-07-16T23:38:07.719Z,20.61
2018-07-16T23:40:36.445Z,20.49
2018-07-16T23:43:05.313Z,20.30
2018-07-16T23:45:34.050Z,20.27
2018-07-16T23:48:03.152Z,20.14
2018-07-16T23:50:32.411Z,20.15
2018-07-16T23:53:02.207Z,20.21
2018-07-16T23:55:31.907Z,20.29
2018-07-16T23:58:00.702Z,20.23
